createdAt,value
2022-11-04T00:02:30.705Z,20.00
2022-11-04T00:05:05.456Z,19.20
2022-11-04T00:08:04.166Z,19.40
2022-11-04T00:10:51.345Z,19.70
2022-11-04T00:13:23.488Z,19.00
2022-11-04T00:16:15.109Z,19.40
2022-11-04T00:19:52.919Z,18.40
2022-11-04T00:22:43.831Z,18.20
2022-11-04T00:25:34.312Z,18.00
2022-11-04T00:28:31.066Z,18.90
2022-11-04T00:31:19.107Z,20.60
2022-11-04T00:33:52.643Z,18.30
2022-11-04T00:36:28.395Z,17.30
2022-11-04T00:39:01.856Z,20.50
2022-11-04T00:41:34.960Z,20.30
2022-11-04T00:44:08.085Z,20.10
2022-11-04T00:46:40.064Z,18.60
2022-11-04T00:49:14.771Z,17.90
2022-11-04T00:51:46.698Z,19.30
2022-11-04T00:54:23.912Z,20.60
2022-11-04T00:56:55.785Z,21.30
2022-11-04T00:59:30.404Z,20.60
2022-11-04T01:02:03.765Z,20.50
2022-11-04T01:04:37.781Z,20.20
2022-11-04T01:07:10.289Z,18.90
2022-11-04T01:09:45.861Z,18.60
2022-11-04T01:12:19.957Z,17.20
2022-11-04T01:14:52.021Z,16.00
2022-11-04T01:17:24.788Z,17.20
2022-11-04T01:19:59.019Z,19.70
2022-11-04T01:22:31.821Z,18.70
2022-11-04T01:25:07.520Z,18.60
2022-11-04T01:27:39.426Z,17.70
2022-11-04T01:30:14.551Z,18.20
2022-11-04T01:32:48.059Z,19.00
2022-11-04T01:35:21.335Z,18.70
2022-11-04T01:37:59.545Z,18.90
2022-11-04T01:40:37.294Z,19.50
2022-11-04T01:43:16.426Z,17.90
2022-11-04T01:45:51.663Z,17.90
2022-11-04T01:48:27.773Z,17.90
2022-11-04T01:51:00.772Z,18.90
2022-11-04T01:53:39.153Z,19.30
2022-11-04T01:56:14.498Z,19.20
2022-11-04T01:58:53.576Z,18.20
2022-11-04T02:01:29.135Z,18.50
2022-11-04T02:04:17.710Z,16.80
2022-11-04T02:06:52.147Z,16.00
2022-11-04T02:09:27.665Z,15.50
2022-11-04T02:12:20.267Z,15.00
2022-11-04T02:14:55.472Z,15.40
2022-11-04T02:17:38.193Z,14.60
2022-11-04T02:20:25.396Z,14.80
2022-11-04T02:23:32.695Z,15.90
2022-11-04T02:26:28.237Z,15.90
2022-11-04T02:29:26.921Z,15.70
2022-11-04T02:32:07.892Z,13.60
2022-11-04T02:34:43.581Z,13.00
2022-11-04T02:37:29.951Z,12.40
2022-11-04T02:40:16.686Z,12.50
2022-11-04T02:42:54.605Z,12.50
2022-11-04T02:45:31.947Z,12.70
2022-11-04T02:48:12.044Z,12.60
2022-11-04T02:50:50.183Z,12.30
2022-11-04T02:53:27.430Z,13.00
2022-11-04T02:56:05.072Z,12.50
2022-11-04T02:58:40.345Z,11.50
2022-11-04T03:01:15.287Z,12.00
2022-11-04T03:03:51.348Z,11.30
2022-11-04T03:06:29.368Z,11.90
2022-11-04T03:09:04.243Z,11.90
2022-11-04T03:11:36.793Z,11.00
2022-11-04T03:14:11.634Z,11.70
2022-11-04T03:16:46.680Z,10.90
2022-11-04T03:19:22.034Z,11.50
2022-11-04T03:22:00.011Z,11.70
2022-11-04T03:24:34.920Z,11.10
2022-11-04T03:27:11.716Z,11.10
2022-11-04T03:29:53.955Z,10.80
2022-11-04T03:32:34.149Z,11.80
2022-11-04T03:35:08.618Z,10.60
2022-11-04T03:37:42.863Z,11.20
2022-11-04T03:40:17.953Z,11.40
2022-11-04T03:42:55.304Z,12.30
2022-11-04T03:45:28.547Z,12.80
2022-11-04T03:48:01.109Z,13.70
2022-11-04T03:50:40.768Z,14.50
2022-11-04T03:53:20.274Z,14.30
2022-11-04T03:56:09.214Z,15.10
2022-11-04T03:58:49.725Z,11.90
2022-11-04T04:01:31.645Z,12.00
2022-11-04T04:04:10.194Z,12.30
2022-11-04T04:06:45.137Z,12.10
2022-11-04T04:09:22.264Z,14.60
2022-11-04T04:12:00.489Z,17.40
2022-11-04T04:14:44.952Z,13.60
2022-11-04T04:17:21.528Z,12.80
2022-11-04T04:19:56.107Z,14.50
2022-11-04T04:22:30.560Z,13.70
2022-11-04T04:25:23.804Z,11.20
2022-11-04T04:27:56.580Z,10.60
2022-11-04T04:30:30.072Z,11.60
2022-11-04T04:33:06.555Z,11.90
2022-11-04T04:35:44.349Z,12.70
2022-11-04T04:38:39.892Z,14.40
2022-11-04T04:41:36.084Z,13.70
2022-11-04T04:44:33.724Z,13.40
2022-11-04T04:47:09.235Z,13.00
2022-11-04T04:49:52.330Z,13.10
2022-11-04T04:52:28.027Z,12.60
2022-11-04T04:55:02.258Z,13.20
2022-11-04T04:57:39.074Z,12.20
2022-11-04T05:00:16.711Z,12.30
2022-11-04T05:02:49.584Z,12.70
2022-11-04T05:05:22.081Z,13.60
2022-11-04T05:08:07.020Z,13.50
2022-11-04T05:10:40.854Z,13.00
2022-11-04T05:13:30.448Z,14.40
2022-11-04T05:16:10.272Z,13.30
2022-11-04T05:18:46.102Z,14.10
2022-11-04T05:21:23.224Z,14.00
2022-11-04T05:23:55.629Z,15.70
2022-11-04T05:26:30.857Z,14.60
2022-11-04T05:29:07.723Z,15.90
2022-11-04T05:31:40.467Z,15.00
2022-11-04T05:34:13.612Z,14.60
2022-11-04T05:36:46.985Z,14.50
2022-11-04T05:39:19.996Z,12.90
2022-11-04T05:41:54.560Z,12.50
2022-11-04T05:44:27.358Z,12.00
2022-11-04T05:47:01.335Z,11.60
2022-11-04T05:49:35.779Z,11.70
2022-11-04T05:52:11.432Z,12.20
2022-11-04T05:54:45.408Z,13.10
2022-11-04T05:57:19.392Z,12.50
2022-11-04T05:59:51.721Z,13.00
2022-11-04T06:02:25.041Z,11.80
2022-11-04T06:04:57.285Z,12.80
2022-11-04T06:07:29.905Z,11.30
2022-11-04T06:10:05.855Z,11.20
2022-11-04T06:12:37.968Z,11.60
2022-11-04T06:15:12.277Z,11.30
2022-11-04T06:17:45.643Z,10.20
2022-11-04T06:20:18.704Z,10.30
2022-11-04T06:22:53.295Z,11.10
2022-11-04T06:25:31.477Z,11.80
2022-11-04T06:28:05.264Z,12.00
2022-11-04T06:30:39.039Z,16.40
2022-11-04T06:33:14.972Z,14.50
2022-11-04T06:36:03.200Z,11.30
2022-11-04T06:38:39.438Z,11.00
2022-11-04T06:41:14.881Z,12.10
2022-11-04T06:43:48.585Z,13.00
2022-11-04T06:46:35.612Z,14.30
2022-11-04T06:49:11.723Z,12.90
2022-11-04T06:51:45.883Z,13.00
2022-11-04T06:54:18.207Z,13.50
2022-11-04T06:56:51.065Z,14.70
2022-11-04T06:59:25.970Z,14.60
2022-11-04T07:01:58.158Z,15.00
2022-11-04T07:04:31.687Z,15.10
2022-11-04T07:07:05.778Z,15.10
2022-11-04T07:09:42.940Z,13.80
2022-11-04T07:12:20.138Z,12.90
2022-11-04T07:14:56.775Z,13.80
2022-11-04T07:17:32.825Z,14.90
2022-11-04T07:20:17.420Z,14.20
2022-11-04T07:22:58.187Z,16.10
2022-11-04T07:26:08.432Z,15.90
2022-11-04T07:29:08.744Z,15.40
2022-11-04T07:31:43.794Z,16.10
2022-11-04T07:34:43.539Z,16.10
2022-11-04T07:37:42.431Z,15.70
2022-11-04T07:40:41.600Z,15.60
2022-11-04T07:43:38.265Z,16.40
2022-11-04T07:46:20.446Z,15.50
2022-11-04T07:49:22.620Z,15.80
2022-11-04T07:51:54.717Z,16.30
2022-11-04T07:54:29.036Z,16.50
2022-11-04T07:57:01.434Z,16.30
2022-11-04T07:59:34.227Z,15.10
2022-11-04T08:02:06.849Z,14.90
2022-11-04T08:04:41.728Z,13.80
2022-11-04T08:07:16.477Z,14.20
2022-11-04T08:09:52.118Z,13.20
2022-11-04T08:12:27.932Z,14.00
2022-11-04T08:15:00.685Z,13.20
2022-11-04T08:17:33.756Z,12.60
2022-11-04T08:20:09.860Z,12.70
2022-11-04T08:22:41.850Z,12.60
2022-11-04T08:25:14.396Z,12.00
2022-11-04T08:27:50.217Z,12.10
2022-11-04T08:30:24.211Z,14.30
2022-11-04T08:33:00.087Z,12.50
2022-11-04T08:35:39.747Z,12.30
2022-11-04T08:38:15.528Z,12.30
2022-11-04T08:40:48.537Z,11.50
2022-11-04T08:43:21.582Z,10.80
2022-11-04T08:45:55.012Z,12.80
2022-11-04T08:48:30.697Z,11.90
2022-11-04T08:51:04.277Z,10.30
2022-11-04T08:53:38.263Z,11.90
2022-11-04T08:56:17.330Z,11.10
2022-11-04T08:58:49.599Z,10.30
2022-11-04T09:01:24.112Z,10.50
2022-11-04T09:03:58.101Z,11.00
2022-11-04T09:06:34.283Z,11.20
2022-11-04T09:09:09.807Z,12.60
2022-11-04T09:11:45.104Z,12.90
2022-11-04T09:14:20.861Z,15.70
2022-11-04T09:16:55.768Z,15.70
2022-11-04T09:19:28.715Z,14.80
2022-11-04T09:22:01.354Z,14.10
2022-11-04T09:24:35.634Z,16.50
2022-11-04T09:27:11.660Z,12.80
2022-11-04T09:29:47.651Z,12.30
2022-11-04T09:33:08.093Z,13.50
2022-11-04T09:36:10.673Z,12.40
2022-11-04T09:42:29.026Z,14.30
2022-11-04T09:45:22.477Z,13.90
2022-11-04T09:54:35.001Z,14.10
2022-11-04T09:57:12.261Z,12.40
2022-11-04T10:00:22.836Z,12.80
2022-11-04T10:03:44.904Z,12.80
2022-11-04T10:06:35.542Z,14.90
2022-11-04T10:09:46.840Z,11.70
2022-11-04T10:16:09.014Z,12.00
2022-11-04T10:19:33.794Z,32.60
2022-11-04T10:22:54.856Z,11.90
2022-11-04T10:26:05.426Z,11.50
2022-11-04T10:29:11.446Z,11.60
2022-11-04T10:32:11.400Z,12.80
2022-11-04T10:35:20.846Z,13.30
2022-11-04T10:37:57.607Z,15.60
2022-11-04T10:50:30.561Z,12.40
2022-11-04T10:53:55.478Z,11.10
2022-11-04T10:57:06.454Z,13.90
2022-11-04T11:00:24.121Z,12.20
2022-11-04T11:03:22.845Z,12.30
2022-11-04T11:06:21.303Z,12.60
2022-11-04T11:08:57.272Z,14.30
2022-11-04T11:11:41.622Z,14.00
2022-11-04T11:14:32.185Z,12.20
2022-11-04T11:17:22.005Z,10.00
2022-11-04T11:19:59.181Z,9.50
2022-11-04T11:22:38.911Z,10.30
2022-11-04T11:25:24.347Z,10.80
2022-11-04T11:27:59.535Z,10.30
2022-11-04T11:30:34.845Z,9.90
2022-11-04T11:33:09.864Z,9.40
2022-11-04T11:35:46.977Z,9.20
2022-11-04T11:38:22.542Z,9.20
2022-11-04T11:41:23.785Z,8.80
2022-11-04T11:43:59.505Z,9.90
2022-11-04T11:46:34.597Z,8.70
2022-11-04T11:49:07.685Z,8.90
2022-11-04T11:51:41.651Z,8.90
2022-11-04T11:54:24.536Z,8.70
2022-11-04T11:57:22.358Z,8.70
2022-11-04T12:02:59.731Z,12.80
2022-11-04T12:11:51.842Z,9.80
2022-11-04T12:14:33.801Z,9.90
2022-11-04T12:17:14.143Z,10.20
2022-11-04T12:19:57.976Z,12.00
2022-11-04T12:22:39.212Z,11.50
2022-11-04T12:25:20.661Z,10.90
2022-11-04T12:28:00.265Z,12.00
2022-11-04T12:30:39.760Z,10.00
2022-11-04T12:33:21.780Z,9.70
2022-11-04T12:36:05.188Z,8.40
2022-11-04T12:38:51.783Z,8.70
2022-11-04T12:41:47.172Z,8.80
2022-11-04T12:44:29.611Z,15.30
2022-11-04T12:47:11.769Z,9.60
2022-11-04T12:50:11.298Z,12.20
2022-11-04T12:53:17.478Z,10.70
2022-11-04T12:55:58.660Z,9.00
2022-11-04T12:58:39.387Z,9.90
2022-11-04T13:01:16.319Z,10.30
2022-11-04T13:03:54.086Z,10.40
2022-11-04T13:06:31.075Z,9.90
2022-11-04T13:09:06.817Z,10.30
2022-11-04T13:11:46.803Z,9.60
2022-11-04T13:14:27.550Z,10.00
2022-11-04T13:17:03.044Z,9.80
2022-11-04T13:19:40.477Z,10.00
2022-11-04T13:22:15.277Z,10.60
2022-11-04T13:24:51.116Z,10.40
2022-11-04T13:27:34.916Z,18.00
2022-11-04T13:30:18.322Z,12.70
2022-11-04T13:32:53.985Z,16.20
2022-11-04T13:35:34.786Z,13.70
2022-11-04T13:38:12.891Z,11.60
2022-11-04T13:40:50.774Z,11.20
2022-11-04T13:43:40.366Z,11.40
2022-11-04T13:46:31.002Z,10.90
2022-11-04T13:49:06.026Z,10.70
2022-11-04T13:51:43.327Z,11.00
2022-11-04T13:54:31.773Z,10.70
2022-11-04T13:57:16.014Z,12.80
2022-11-04T14:00:20.805Z,12.40
2022-11-04T14:02:54.408Z,12.10
2022-11-04T14:05:48.749Z,13.20
2022-11-04T14:08:24.787Z,14.90
2022-11-04T14:11:09.242Z,16.00
2022-11-04T14:14:06.646Z,15.80
2022-11-04T14:16:46.617Z,16.70
2022-11-04T14:19:58.266Z,15.60
2022-11-04T14:22:43.096Z,15.20
2022-11-04T14:25:26.991Z,16.90
2022-11-04T14:28:01.789Z,15.20
2022-11-04T14:30:48.438Z,15.10
2022-11-04T14:33:53.724Z,14.90
2022-11-04T14:36:42.764Z,15.70
2022-11-04T14:39:35.001Z,15.00
2022-11-04T14:42:10.253Z,13.70
2022-11-04T14:44:49.769Z,16.40
2022-11-04T14:47:26.793Z,14.50
2022-11-04T14:50:08.789Z,13.20
2022-11-04T14:52:51.436Z,14.70
2022-11-04T14:55:25.140Z,16.40
2022-11-04T14:57:59.091Z,15.20
2022-11-04T15:00:34.980Z,15.30
2022-11-04T15:04:04.644Z,15.50
2022-11-04T15:06:13.635Z,17.90
2022-11-04T15:08:49.491Z,17.10
2022-11-04T15:11:40.680Z,16.20
2022-11-04T15:14:22.041Z,21.00
2022-11-04T15:16:58.511Z,15.70
2022-11-04T15:19:37.986Z,15.40
2022-11-04T15:22:16.044Z,15.60
2022-11-04T15:24:50.659Z,17.10
2022-11-04T15:27:29.522Z,18.30
2022-11-04T15:30:04.151Z,19.40
2022-11-04T15:32:37.297Z,19.90
2022-11-04T15:35:16.676Z,25.00
2022-11-04T15:37:51.482Z,18.90
2022-11-04T15:40:25.125Z,17.50
2022-11-04T15:42:57.877Z,17.80
2022-11-04T15:45:33.241Z,19.40
2022-11-04T15:48:34.634Z,25.80
2022-11-04T15:51:24.850Z,52.10
2022-11-04T15:54:00.886Z,57.50
2022-11-04T15:56:36.856Z,62.40
2022-11-04T15:59:14.168Z,49.40
2022-11-04T16:01:52.205Z,40.50
2022-11-04T16:04:27.811Z,37.30
2022-11-04T16:07:25.108Z,32.70
2022-11-04T16:09:58.113Z,34.30
2022-11-04T16:12:39.545Z,47.00
2022-11-04T16:15:37.416Z,59.10
2022-11-04T16:18:23.726Z,45.40
2022-11-04T16:20:57.597Z,29.90
2022-11-04T16:23:32.837Z,23.10
2022-11-04T16:26:08.027Z,24.10
2022-11-04T16:28:41.860Z,20.90
2022-11-04T16:31:31.131Z,21.10
2022-11-04T16:34:05.605Z,22.40
2022-11-04T16:36:37.902Z,22.60
2022-11-04T16:39:12.698Z,21.70
2022-11-04T16:41:46.546Z,20.90
2022-11-04T16:44:23.657Z,21.70
2022-11-04T16:46:59.655Z,23.80
2022-11-04T16:49:33.012Z,27.00
2022-11-04T16:52:07.400Z,27.20
2022-11-04T16:54:39.309Z,28.40
2022-11-04T16:57:14.543Z,27.30
2022-11-04T16:59:52.962Z,27.10
2022-11-04T17:02:30.860Z,27.20
2022-11-04T17:05:08.038Z,28.50
2022-11-04T17:07:54.519Z,30.60
2022-11-04T17:10:33.404Z,33.50
2022-11-04T17:13:07.144Z,33.60
2022-11-04T17:15:41.146Z,35.80
2022-11-04T17:18:17.233Z,35.00
2022-11-04T17:20:52.777Z,33.10
2022-11-04T17:23:25.673Z,31.80
2022-11-04T17:25:58.704Z,32.40
2022-11-04T17:28:33.623Z,32.40
2022-11-04T17:31:14.517Z,33.60
2022-11-04T17:33:47.713Z,30.60
2022-11-04T17:36:22.618Z,35.80
2022-11-04T17:38:54.664Z,30.70
2022-11-04T17:41:46.655Z,29.70
2022-11-04T17:44:19.223Z,28.70
2022-11-04T17:46:52.282Z,29.40
2022-11-04T17:49:25.897Z,30.20
2022-11-04T17:52:01.238Z,28.50
2022-11-04T17:54:34.603Z,29.60
2022-11-04T17:57:08.879Z,28.60
2022-11-04T17:59:41.083Z,28.00
2022-11-04T18:02:13.583Z,26.50
2022-11-04T18:04:48.991Z,27.30
2022-11-04T18:07:21.429Z,27.10
2022-11-04T18:09:55.690Z,27.20
2022-11-04T18:12:41.673Z,26.30
2022-11-04T18:15:18.952Z,26.30
2022-11-04T18:17:53.531Z,26.60
2022-11-04T18:20:25.609Z,28.10
2022-11-04T18:23:02.037Z,29.90
2022-11-04T18:25:35.089Z,29.40
2022-11-04T18:28:08.186Z,29.80
2022-11-04T18:30:41.833Z,29.00
2022-11-04T18:33:14.201Z,30.30
2022-11-04T18:35:47.097Z,30.50
2022-11-04T18:38:21.863Z,31.30
2022-11-04T18:40:56.891Z,29.20
2022-11-04T18:43:31.835Z,29.90
2022-11-04T18:46:10.187Z,28.50
2022-11-04T18:48:43.331Z,29.50
2022-11-04T18:51:17.349Z,29.40
2022-11-04T18:53:51.330Z,29.30
2022-11-04T18:56:25.314Z,30.70
2022-11-04T18:58:57.846Z,29.40
2022-11-04T19:01:33.532Z,30.20
2022-11-04T19:04:08.384Z,31.40
2022-11-04T19:06:46.332Z,32.40
2022-11-04T19:12:32.241Z,36.40
2022-11-04T19:15:06.535Z,37.40
2022-11-04T19:17:39.883Z,37.80
2022-11-04T19:20:14.125Z,37.00
2022-11-04T19:22:47.574Z,36.90
2022-11-04T19:25:21.509Z,36.30
2022-11-04T19:28:26.445Z,34.00
2022-11-04T19:31:05.625Z,33.60
2022-11-04T19:33:38.380Z,34.90
2022-11-04T19:36:12.509Z,34.00
2022-11-04T19:38:45.124Z,33.00
2022-11-04T19:41:38.242Z,34.10
2022-11-04T19:44:12.940Z,35.00
2022-11-04T19:46:49.303Z,35.30
2022-11-04T19:49:22.268Z,35.80
2022-11-04T19:51:56.081Z,38.60
2022-11-04T19:54:32.806Z,37.40
2022-11-04T19:57:05.443Z,38.30
2022-11-04T19:59:44.361Z,38.20
2022-11-04T20:02:21.942Z,39.40
2022-11-04T20:04:56.518Z,39.40
2022-11-04T20:07:29.024Z,39.50
2022-11-04T20:10:02.730Z,38.70
2022-11-04T20:12:56.097Z,38.20
2022-11-04T20:15:31.337Z,37.90
2022-11-04T20:18:05.403Z,39.60
2022-11-04T20:20:38.935Z,39.00
2022-11-04T20:23:11.410Z,41.30
2022-11-04T20:25:44.092Z,37.90
2022-11-04T20:28:19.429Z,38.20
2022-11-04T20:30:52.195Z,37.60
2022-11-04T20:33:26.278Z,38.20
2022-11-04T20:36:01.046Z,38.20
2022-11-04T20:38:34.761Z,38.90
2022-11-04T20:41:16.775Z,40.10
2022-11-04T20:43:51.588Z,40.60
2022-11-04T20:46:29.622Z,39.80
2022-11-04T20:49:05.787Z,42.40
2022-11-04T20:51:42.236Z,43.50
2022-11-04T20:54:15.672Z,42.80
2022-11-04T20:56:48.732Z,44.40
2022-11-04T20:59:22.598Z,40.40
2022-11-04T21:01:57.594Z,38.20
2022-11-04T21:04:35.950Z,38.80
2022-11-04T21:07:10.103Z,41.30
2022-11-04T21:09:45.210Z,42.50
2022-11-04T21:12:17.772Z,42.00
2022-11-04T21:14:50.312Z,42.20
2022-11-04T21:17:24.171Z,41.50
2022-11-04T21:19:59.353Z,42.20
2022-11-04T21:22:31.969Z,41.40
2022-11-04T21:25:05.197Z,39.60
2022-11-04T21:27:42.068Z,40.10
2022-11-04T21:30:16.792Z,38.80
2022-11-04T21:32:49.228Z,36.60
2022-11-04T21:35:21.950Z,35.60
2022-11-04T21:37:56.741Z,35.60
2022-11-04T21:40:28.814Z,36.10
2022-11-04T21:43:04.655Z,34.90
2022-11-04T21:45:39.055Z,34.80
2022-11-04T21:48:11.932Z,36.00
2022-11-04T21:50:47.545Z,37.00
2022-11-04T21:53:20.230Z,35.10
2022-11-04T21:55:53.940Z,34.80
2022-11-04T21:58:27.738Z,35.90
2022-11-04T22:01:01.744Z,32.90
2022-11-04T22:03:35.649Z,32.10
2022-11-04T22:06:10.245Z,31.50
2022-11-04T22:08:46.387Z,31.60
2022-11-04T22:11:20.280Z,30.00
2022-11-04T22:13:57.237Z,30.00
2022-11-04T22:16:31.027Z,30.90
2022-11-04T22:19:06.667Z,31.90
2022-11-04T22:21:41.218Z,31.50
2022-11-04T22:24:18.917Z,32.20
2022-11-04T22:26:53.459Z,34.80
2022-11-04T22:29:27.154Z,33.10
2022-11-04T22:32:00.135Z,32.90
2022-11-04T22:34:33.393Z,33.30
2022-11-04T22:37:10.297Z,33.00
2022-11-04T22:39:43.662Z,33.70
2022-11-04T22:42:15.537Z,37.70
2022-11-04T22:44:47.413Z,39.60
2022-11-04T22:47:19.893Z,42.70
2022-11-04T22:49:56.629Z,47.60
2022-11-04T22:52:29.252Z,48.20
2022-11-04T22:55:08.543Z,48.20
2022-11-04T22:57:44.257Z,47.20
2022-11-04T23:00:18.116Z,48.50
2022-11-04T23:02:55.252Z,47.60
2022-11-04T23:05:30.772Z,47.70
2022-11-04T23:08:03.380Z,48.30
2022-11-04T23:10:54.426Z,46.80
2022-11-04T23:13:45.785Z,46.50
2022-11-04T23:16:35.454Z,46.70
2022-11-04T23:19:07.679Z,45.10
2022-11-04T23:21:58.232Z,44.70
2022-11-04T23:24:49.266Z,44.40
2022-11-04T23:27:37.166Z,41.30
2022-11-04T23:30:25.912Z,41.70
2022-11-04T23:32:59.866Z,39.00
2022-11-04T23:35:55.142Z,38.10
2022-11-04T23:38:29.702Z,37.30
2022-11-04T23:41:37.732Z,38.50
2022-11-04T23:44:32.677Z,37.40
2022-11-04T23:47:24.736Z,37.20
2022-11-04T23:50:16.607Z,35.90
2022-11-04T23:53:07.399Z,30.80
2022-11-04T23:55:57.536Z,23.10
2022-11-04T23:58:49.403Z,20.60
